Portada
METAR-TAF:

METAR-TAF

Aeroports :

Xiraz, Iran

latitud: 29-32N, longitud: 052-35E, altitud: 1486 m

Observació

L'informe es va fer fa 26 minuts, a les 22:30 UTC
Vent calma
Temperatura 6°C
Humitat 49%
Pressió 1014 hPa
Visibilitat 10 km o més
sense núvols per sota de 1500 mi sense presència de cumulonimbus.

METAR: OISS 012230Z 00000KT CAVOK 06/M04 Q1013 A2993

Hora: 03:26 (22:56 UTC)

Pronòstic

L'informe es va fer fa 4 hores i 56 minuts, a les 18:00 UTC
Pronòstic vàlid del 01 a les 18 UTC al 02 a les 24 UTC
Vent 6 kt del Oest
Visibilitat: 8000 m
Temporalment
l' 02 a les 09 UTC al 02 a les 15 UTC
Vent 15 kt del Oest amb ràfegues de 25 kt

TAF: OISS 011800Z 0118/0224 27006KT 8000 NSC TEMPO 0209/0215 27015G25KT

Observacions i pronòstics meteorològics de més de 4000 aeroports (METAR i TAF).

Les estacions disponibles són els punts grocs i vermells al mapa.

Posi el ratolí al punt desitjat per veure el nom de l'estació.

Feu clic per veure les observacions i els pronòstics meteorològics.

Per canviar el mapa: feu clic els botons verds amb una creu de color negre per apropar; al botó verd amb un guió per allunyar la imatge; o en les fletxes verdes per a mapes adjacents.


METAR-TAF: